createdAt,value
2023-04-25T00:00:37.704Z,8.02
2023-04-25T00:01:36.513Z,7.90
2023-04-25T00:02:33.702Z,7.53
2023-04-25T00:03:30.864Z,7.35
2023-04-25T00:04:28.907Z,7.43
2023-04-25T00:05:25.997Z,6.60
2023-04-25T00:06:22.809Z,5.80
2023-04-25T00:07:19.454Z,6.32
2023-04-25T00:08:16.141Z,5.35
2023-04-25T00:09:12.766Z,4.72
2023-04-25T00:10:12.056Z,4.30
2023-04-25T00:11:08.693Z,4.40
2023-04-25T00:12:05.584Z,4.57
2023-04-25T00:13:03.608Z,5.25
2023-04-25T00:14:03.169Z,4.47
2023-04-25T00:15:01.081Z,4.07
2023-04-25T00:15:58.988Z,4.10
2023-04-25T00:16:55.887Z,3.83
2023-04-25T00:17:54.099Z,3.97
2023-04-25T00:18:54.764Z,4.18
2023-04-25T00:19:51.826Z,3.60
2023-04-25T00:20:49.187Z,3.42
2023-04-25T00:21:47.366Z,3.50
2023-04-25T00:22:44.172Z,3.70
2023-04-25T00:23:40.963Z,3.50
2023-04-25T00:24:37.630Z,3.95
2023-04-25T00:25:34.566Z,3.85
2023-04-25T00:26:31.195Z,3.53
2023-04-25T00:27:28.308Z,3.33
2023-04-25T00:28:24.901Z,3.33
2023-04-25T00:29:21.556Z,3.03
2023-04-25T00:30:18.131Z,2.97
2023-04-25T00:31:15.199Z,3.20
2023-04-25T00:32:11.902Z,3.00
2023-04-25T00:33:09.044Z,2.83
2023-04-25T00:34:06.799Z,2.50
2023-04-25T00:35:03.557Z,2.75
2023-04-25T00:36:00.305Z,3.10
2023-04-25T00:36:57.932Z,2.30
2023-04-25T00:37:55.979Z,2.40
2023-04-25T00:38:54.866Z,2.50
2023-04-25T00:39:52.393Z,2.70
2023-04-25T00:40:49.236Z,2.90
2023-04-25T00:41:46.420Z,3.08
2023-04-25T00:42:43.373Z,3.05
2023-04-25T00:43:41.137Z,2.50
2023-04-25T00:44:38.288Z,2.95
2023-04-25T00:45:38.881Z,2.55
2023-04-25T00:46:36.676Z,2.67
2023-04-25T00:47:34.108Z,2.88
2023-04-25T00:48:30.728Z,3.38
2023-04-25T00:49:27.569Z,3.00
2023-04-25T00:50:25.620Z,2.95
2023-04-25T00:51:22.916Z,3.10
2023-04-25T00:52:19.849Z,2.83
2023-04-25T00:53:16.410Z,2.72
2023-04-25T00:54:13.508Z,2.75
2023-04-25T00:55:11.733Z,3.00
2023-04-25T00:56:08.624Z,3.22
2023-04-25T00:57:05.298Z,3.10
2023-04-25T00:58:01.993Z,3.00
2023-04-25T00:58:58.672Z,3.35
2023-04-25T00:59:55.629Z,3.05
2023-04-25T01:00:53.380Z,3.03
2023-04-25T01:01:50.716Z,3.30
2023-04-25T01:02:47.775Z,2.92
2023-04-25T01:03:47.963Z,2.78
2023-04-25T01:04:45.748Z,3.10
2023-04-25T01:05:43.454Z,3.13
2023-04-25T01:06:40.979Z,3.00
2023-04-25T01:07:37.744Z,3.00
2023-04-25T01:08:35.274Z,3.40
2023-04-25T01:09:33.154Z,3.55
2023-04-25T01:10:29.822Z,2.88
2023-04-25T01:11:26.397Z,2.88
2023-04-25T01:12:23.323Z,3.22
2023-04-25T01:13:20.014Z,3.22
2023-04-25T01:14:17.317Z,3.40
2023-04-25T01:15:13.978Z,2.83
2023-04-25T01:16:10.777Z,3.10
2023-04-25T01:17:08.807Z,3.00
2023-04-25T01:18:06.550Z,3.20
2023-04-25T01:19:09.713Z,2.92
2023-04-25T01:20:08.509Z,3.25
2023-04-25T01:21:13.599Z,3.13
2023-04-25T01:22:11.588Z,3.33
2023-04-25T01:23:08.242Z,2.53
2023-04-25T01:24:05.393Z,3.20
2023-04-25T01:25:02.710Z,3.03
2023-04-25T01:25:59.426Z,4.18
2023-04-25T01:26:57.420Z,3.25
2023-04-25T01:27:54.351Z,3.30
2023-04-25T01:28:51.604Z,3.60
2023-04-25T01:29:48.901Z,3.90
2023-04-25T01:30:46.152Z,3.50
2023-04-25T01:31:43.827Z,3.30
2023-04-25T01:32:42.491Z,3.33
2023-04-25T01:33:39.241Z,3.50
2023-04-25T01:34:35.965Z,3.35
2023-04-25T01:35:32.823Z,3.30
2023-04-25T01:36:30.015Z,3.30
2023-04-25T01:37:26.722Z,3.65
2023-04-25T01:38:23.583Z,3.78
2023-04-25T01:39:21.047Z,3.80
2023-04-25T01:40:19.776Z,4.00
2023-04-25T01:41:18.079Z,3.72
2023-04-25T01:42:14.750Z,3.78
2023-04-25T01:43:13.044Z,4.22
2023-04-25T01:44:09.987Z,4.53
2023-04-25T01:45:07.923Z,3.70
2023-04-25T01:46:05.190Z,3.75
2023-04-25T01:47:01.893Z,3.30
2023-04-25T01:48:00.520Z,4.00
2023-04-25T01:48:57.275Z,3.90
2023-04-25T01:49:53.874Z,3.60
2023-04-25T01:50:50.482Z,4.05
2023-04-25T01:51:47.153Z,4.30
2023-04-25T01:52:43.984Z,4.53
2023-04-25T01:53:41.023Z,4.53
2023-04-25T01:54:37.737Z,4.50
2023-04-25T01:55:34.546Z,4.07
2023-04-25T01:56:37.475Z,4.55
2023-04-25T01:57:34.218Z,4.38
2023-04-25T01:58:30.925Z,4.50
2023-04-25T01:59:27.598Z,4.43
2023-04-25T02:00:24.254Z,4.70
2023-04-25T02:01:20.903Z,4.35
2023-04-25T02:02:17.639Z,4.50
2023-04-25T02:03:14.398Z,4.68
2023-04-25T02:04:11.251Z,4.35
2023-04-25T02:05:08.609Z,4.75
2023-04-25T02:06:05.358Z,4.40
2023-04-25T02:07:01.954Z,4.60
2023-04-25T02:07:58.563Z,4.28
2023-04-25T02:08:55.224Z,4.30
2023-04-25T02:09:51.844Z,4.10
2023-04-25T02:10:48.436Z,4.30
2023-04-25T02:11:45.544Z,4.57
2023-04-25T02:12:42.299Z,5.28
2023-04-25T02:13:38.944Z,4.55
2023-04-25T02:14:35.601Z,4.57
2023-04-25T02:15:32.550Z,4.22
2023-04-25T02:16:29.278Z,5.38
2023-04-25T02:17:26.208Z,4.10
2023-04-25T02:18:22.845Z,4.82
2023-04-25T02:19:19.516Z,4.53
2023-04-25T02:20:17.067Z,4.40
2023-04-25T02:21:13.757Z,4.38
2023-04-25T02:22:11.464Z,4.45
2023-04-25T02:23:08.235Z,4.22
2023-04-25T02:24:05.658Z,4.30
2023-04-25T02:25:02.714Z,4.07
2023-04-25T02:25:59.494Z,4.60
2023-04-25T02:26:57.064Z,3.80
2023-04-25T02:27:53.661Z,4.30
2023-04-25T02:28:51.473Z,4.78
2023-04-25T02:29:48.111Z,4.50
2023-04-25T02:30:44.724Z,4.90
2023-04-25T02:31:41.354Z,4.65
2023-04-25T02:32:38.095Z,4.65
2023-04-25T02:33:35.518Z,4.72
2023-04-25T02:34:32.344Z,4.95
2023-04-25T02:35:28.955Z,4.63
2023-04-25T02:36:25.614Z,4.90
2023-04-25T02:37:22.202Z,5.30
2023-04-25T02:38:18.773Z,5.32
2023-04-25T02:39:15.373Z,5.05
2023-04-25T02:40:12.315Z,4.72
2023-04-25T02:41:08.934Z,4.95
2023-04-25T02:42:05.698Z,5.32
2023-04-25T02:43:02.374Z,5.53
2023-04-25T02:43:58.988Z,5.35
2023-04-25T02:44:55.623Z,5.32
2023-04-25T02:45:52.385Z,5.55
2023-04-25T02:46:48.999Z,5.45
2023-04-25T02:47:45.767Z,5.55
2023-04-25T02:48:42.482Z,5.50
2023-04-25T02:49:39.063Z,5.10
2023-04-25T02:50:35.767Z,5.13
2023-04-25T02:51:32.409Z,5.38
2023-04-25T02:52:29.020Z,5.43
2023-04-25T02:53:25.680Z,5.55
2023-04-25T02:54:22.246Z,5.15
2023-04-25T02:55:18.908Z,5.93
2023-04-25T02:56:15.495Z,5.85
2023-04-25T02:57:12.107Z,5.07
2023-04-25T02:58:08.799Z,5.63
2023-04-25T02:59:05.521Z,5.70
2023-04-25T03:00:02.140Z,6.13
2023-04-25T03:00:58.728Z,6.30
2023-04-25T03:01:55.914Z,6.03
2023-04-25T03:02:52.716Z,5.55
2023-04-25T03:03:49.760Z,5.72
2023-04-25T03:04:47.238Z,6.07
2023-04-25T03:05:44.371Z,6.05
2023-04-25T03:06:40.990Z,6.53
2023-04-25T03:07:37.564Z,6.57
2023-04-25T03:08:35.456Z,6.00
2023-04-25T03:09:32.119Z,6.95
2023-04-25T03:10:28.723Z,5.55
2023-04-25T03:11:27.003Z,5.60
2023-04-25T03:12:23.683Z,5.38
2023-04-25T03:13:20.542Z,5.03
2023-04-25T03:14:17.080Z,5.25
2023-04-25T03:15:13.705Z,5.38
2023-04-25T03:16:10.961Z,5.45
2023-04-25T03:17:07.983Z,5.60
2023-04-25T03:18:05.066Z,5.90
2023-04-25T03:19:01.659Z,5.93
2023-04-25T03:19:58.851Z,6.93
2023-04-25T03:20:55.489Z,7.13
2023-04-25T03:21:52.142Z,6.72
2023-04-25T03:22:48.816Z,7.07
2023-04-25T03:23:45.578Z,6.82
2023-04-25T03:24:42.216Z,6.70
2023-04-25T03:25:38.849Z,6.60
2023-04-25T03:26:35.465Z,6.50
2023-04-25T03:27:32.081Z,5.88
2023-04-25T03:28:28.976Z,5.90
2023-04-25T03:29:27.552Z,6.20
2023-04-25T03:30:24.220Z,6.07
2023-04-25T03:31:21.160Z,5.88
2023-04-25T03:32:17.819Z,6.00
2023-04-25T03:33:14.502Z,6.28
2023-04-25T03:34:11.138Z,6.15
2023-04-25T03:35:08.212Z,6.22
2023-04-25T03:36:05.175Z,6.40
2023-04-25T03:37:01.843Z,5.85
2023-04-25T03:37:58.386Z,6.32
2023-04-25T03:38:55.130Z,6.35
2023-04-25T03:39:52.011Z,6.75
2023-04-25T03:40:48.609Z,5.75
2023-04-25T03:41:45.247Z,6.43
2023-04-25T03:42:43.484Z,5.97
2023-04-25T03:43:41.619Z,5.38
2023-04-25T03:44:38.270Z,5.50
2023-04-25T03:45:34.958Z,5.85
2023-04-25T03:46:31.593Z,5.47
2023-04-25T03:47:28.301Z,5.45
2023-04-25T03:48:27.010Z,5.75
2023-04-25T03:49:23.658Z,5.13
2023-04-25T03:50:21.453Z,5.05
2023-04-25T03:51:18.088Z,5.88
2023-04-25T03:52:14.796Z,5.80
2023-04-25T03:53:11.360Z,5.57
2023-04-25T03:54:08.721Z,5.05
2023-04-25T03:55:06.078Z,5.20
2023-04-25T03:56:02.791Z,6.05
2023-04-25T03:56:59.558Z,5.45
2023-04-25T03:57:56.204Z,5.10
2023-04-25T03:58:52.888Z,5.35
2023-04-25T03:59:49.482Z,5.70
2023-04-25T04:00:46.119Z,5.70
2023-04-25T04:01:42.742Z,5.78
2023-04-25T04:02:40.610Z,5.90
2023-04-25T04:03:38.997Z,5.82
2023-04-25T04:04:36.904Z,5.88
2023-04-25T04:05:34.413Z,5.88
2023-04-25T04:06:31.127Z,6.03
2023-04-25T04:07:27.819Z,5.20
2023-04-25T04:08:24.502Z,4.82
2023-04-25T04:09:21.573Z,5.30
2023-04-25T04:10:18.208Z,5.30
2023-04-25T04:11:14.837Z,5.20
2023-04-25T04:12:11.425Z,5.22
2023-04-25T04:13:08.024Z,5.72
2023-04-25T04:14:04.838Z,5.30
2023-04-25T04:15:02.301Z,5.32
2023-04-25T04:15:59.156Z,5.75
2023-04-25T04:16:55.815Z,5.53
2023-04-25T04:17:52.428Z,5.80
2023-04-25T04:18:49.058Z,5.45
2023-04-25T04:19:45.651Z,5.85
2023-04-25T04:20:42.311Z,6.35
2023-04-25T04:21:38.975Z,5.88
2023-04-25T04:22:35.917Z,5.90
2023-04-25T04:23:32.582Z,6.80
2023-04-25T04:24:29.262Z,5.97
2023-04-25T04:25:25.998Z,6.75
2023-04-25T04:26:27.122Z,5.93
2023-04-25T04:27:24.477Z,6.53
2023-04-25T04:28:21.614Z,6.68
2023-04-25T04:29:21.959Z,6.07
2023-04-25T04:30:18.658Z,6.18
2023-04-25T04:31:17.931Z,6.35
2023-04-25T04:32:15.845Z,7.57
2023-04-25T04:33:13.212Z,6.50
2023-04-25T04:34:10.608Z,6.75
2023-04-25T04:35:07.800Z,6.43
2023-04-25T04:36:05.222Z,7.53
2023-04-25T04:37:02.089Z,7.00
2023-04-25T04:37:58.762Z,6.20
2023-04-25T04:38:55.337Z,7.57
2023-04-25T04:39:52.950Z,7.03
2023-04-25T04:40:49.497Z,7.03
2023-04-25T04:41:46.474Z,6.65
2023-04-25T04:42:43.816Z,7.32
2023-04-25T04:43:40.655Z,6.72
2023-04-25T04:44:37.749Z,7.80
2023-04-25T04:45:34.512Z,7.00
2023-04-25T04:46:32.346Z,6.43
2023-04-25T04:47:32.205Z,7.65
2023-04-25T04:48:29.302Z,7.47
2023-04-25T04:49:25.954Z,7.78
2023-04-25T04:50:22.659Z,7.15
2023-04-25T04:51:19.269Z,6.82
2023-04-25T04:52:15.958Z,7.93
2023-04-25T04:53:12.941Z,7.80
2023-04-25T04:54:09.523Z,7.82
2023-04-25T04:55:07.012Z,7.63
2023-04-25T04:56:03.909Z,6.72
2023-04-25T04:57:00.581Z,7.90
2023-04-25T04:57:57.276Z,7.47
2023-04-25T04:58:53.949Z,7.97
2023-04-25T04:59:51.483Z,8.55
2023-04-25T05:00:48.637Z,8.38
2023-04-25T05:01:45.366Z,7.90
2023-04-25T05:02:42.105Z,7.90
2023-04-25T05:03:38.976Z,7.50
2023-04-25T05:04:35.727Z,6.93
2023-04-25T05:05:32.432Z,7.93
2023-04-25T05:06:30.264Z,6.85
2023-04-25T05:07:26.821Z,7.43
2023-04-25T05:08:23.459Z,7.40
2023-04-25T05:09:20.371Z,7.60
2023-04-25T05:10:18.578Z,7.63
2023-04-25T05:11:15.297Z,7.10
2023-04-25T05:12:12.048Z,8.23
2023-04-25T05:13:08.653Z,7.05
2023-04-25T05:14:05.293Z,6.05
2023-04-25T05:15:01.952Z,6.80
2023-04-25T05:15:58.574Z,7.45
2023-04-25T05:16:55.384Z,6.18
2023-04-25T05:17:52.183Z,5.60
2023-04-25T05:18:49.133Z,5.53
2023-04-25T05:19:45.854Z,6.22
2023-04-25T05:20:42.391Z,6.00
2023-04-25T05:21:38.952Z,6.13
2023-04-25T05:22:35.661Z,6.40
2023-04-25T05:23:33.534Z,5.70
2023-04-25T05:24:30.478Z,5.80
2023-04-25T05:25:28.713Z,6.70
2023-04-25T05:26:25.328Z,6.40
2023-04-25T05:27:22.085Z,5.88
2023-04-25T05:28:18.679Z,5.97
2023-04-25T05:29:15.372Z,6.07
2023-04-25T05:30:12.217Z,6.25
2023-04-25T05:31:10.965Z,6.63
2023-04-25T05:32:08.667Z,6.22
2023-04-25T05:33:05.360Z,6.18
2023-04-25T05:34:02.183Z,6.22
2023-04-25T05:34:58.836Z,6.70
2023-04-25T05:35:55.455Z,6.10
2023-04-25T05:36:52.085Z,6.03
2023-04-25T05:37:48.731Z,5.95
2023-04-25T05:38:45.437Z,7.43
2023-04-25T05:39:42.000Z,7.20
2023-04-25T05:40:38.601Z,6.40
2023-04-25T05:41:35.273Z,6.03
2023-04-25T05:42:31.865Z,6.70
2023-04-25T05:43:28.503Z,7.30
2023-04-25T05:44:25.157Z,7.28
2023-04-25T05:45:21.912Z,7.07
2023-04-25T05:46:18.606Z,6.47
2023-04-25T05:47:15.289Z,6.72
2023-04-25T05:48:11.930Z,6.78
2023-04-25T05:49:08.587Z,6.78
2023-04-25T05:50:05.886Z,7.28
2023-04-25T05:51:02.549Z,6.70
2023-04-25T05:51:59.236Z,6.68
2023-04-25T05:52:55.852Z,6.60
2023-04-25T05:53:52.955Z,7.05
2023-04-25T05:54:49.856Z,6.85
2023-04-25T05:55:46.527Z,7.30
2023-04-25T05:56:43.105Z,6.60
2023-04-25T05:57:42.400Z,6.53
2023-04-25T05:58:39.112Z,6.82
2023-04-25T05:59:35.967Z,6.35
2023-04-25T06:00:32.540Z,7.07
2023-04-25T06:01:29.244Z,6.28
2023-04-25T06:02:25.902Z,6.57
2023-04-25T06:03:22.806Z,7.25
2023-04-25T06:04:19.738Z,6.55
2023-04-25T06:05:16.796Z,6.28
2023-04-25T06:06:13.598Z,6.95
2023-04-25T06:07:10.348Z,7.00
2023-04-25T06:08:06.929Z,7.80
2023-04-25T06:09:03.902Z,7.40
2023-04-25T06:10:01.903Z,6.82
2023-04-25T06:10:58.603Z,7.13
2023-04-25T06:11:55.442Z,8.07
2023-04-25T06:12:52.094Z,7.47
2023-04-25T06:13:48.869Z,7.82
2023-04-25T06:14:45.894Z,6.50
2023-04-25T06:15:42.514Z,7.63
2023-04-25T06:16:39.139Z,6.82
2023-04-25T06:17:36.452Z,6.90
2023-04-25T06:18:33.051Z,6.68
2023-04-25T06:19:29.668Z,6.53
2023-04-25T06:20:29.069Z,7.13
2023-04-25T06:21:25.782Z,7.75
2023-04-25T06:22:22.440Z,6.65
2023-04-25T06:23:19.206Z,7.60
2023-04-25T06:24:15.794Z,7.15
2023-04-25T06:25:12.427Z,6.95
2023-04-25T06:26:09.053Z,6.20
2023-04-25T06:27:06.165Z,6.68
2023-04-25T06:28:02.836Z,6.32
2023-04-25T06:28:59.448Z,6.80
2023-04-25T06:29:56.111Z,7.63
2023-04-25T06:30:52.807Z,6.72
2023-04-25T06:31:49.469Z,7.63
2023-04-25T06:32:46.136Z,6.05
2023-04-25T06:33:42.717Z,6.20
2023-04-25T06:34:39.383Z,7.15
2023-04-25T06:35:36.254Z,7.40
2023-04-25T06:36:32.910Z,6.65
2023-04-25T06:37:29.554Z,5.72
2023-04-25T06:38:26.254Z,5.55
2023-04-25T06:39:24.405Z,6.15
2023-04-25T06:40:21.167Z,6.97
2023-04-25T06:41:17.738Z,6.20
2023-04-25T06:42:14.324Z,6.75
2023-04-25T06:43:11.636Z,6.93
2023-04-25T06:44:08.370Z,7.35
2023-04-25T06:45:05.281Z,7.47
2023-04-25T06:46:02.087Z,7.25
2023-04-25T06:46:58.799Z,6.20
2023-04-25T06:47:55.911Z,6.30
2023-04-25T06:48:52.778Z,5.65
2023-04-25T06:49:49.786Z,5.88
2023-04-25T06:50:46.556Z,5.00
2023-04-25T06:51:43.117Z,4.68
2023-04-25T06:52:39.684Z,5.07
2023-04-25T06:53:36.290Z,4.80
2023-04-25T06:54:32.955Z,5.07
2023-04-25T06:55:29.554Z,5.03
2023-04-25T06:56:26.130Z,4.70
2023-04-25T06:57:22.711Z,4.47
2023-04-25T06:58:19.875Z,4.38
2023-04-25T06:59:16.527Z,4.47
2023-04-25T07:00:13.909Z,4.50
2023-04-25T07:01:10.517Z,4.80
2023-04-25T07:02:07.335Z,4.90
2023-04-25T07:03:04.294Z,5.30
2023-04-25T07:04:01.320Z,4.65
2023-04-25T07:05:00.882Z,5.15
2023-04-25T07:05:57.581Z,5.05
2023-04-25T07:06:54.468Z,5.35
2023-04-25T07:07:51.113Z,5.30
2023-04-25T07:08:47.735Z,5.22
2023-04-25T07:09:44.316Z,5.38
2023-04-25T07:10:41.281Z,5.95
2023-04-25T07:11:38.136Z,5.80
2023-04-25T07:12:34.827Z,5.97
2023-04-25T07:13:31.510Z,5.90
2023-04-25T07:14:28.763Z,6.68
2023-04-25T07:15:25.903Z,7.50
2023-04-25T07:16:22.576Z,8.02
2023-04-25T07:17:19.218Z,7.90
2023-04-25T07:18:16.429Z,8.05
2023-04-25T07:19:13.365Z,8.38
2023-04-25T07:20:11.105Z,8.25
2023-04-25T07:21:07.833Z,8.10
2023-04-25T07:22:04.437Z,9.13
2023-04-25T07:23:01.268Z,9.07
2023-04-25T07:23:58.574Z,10.02
2023-04-25T07:24:55.353Z,10.40
2023-04-25T07:25:52.036Z,9.52
2023-04-25T07:26:48.708Z,10.40
2023-04-25T07:27:45.552Z,11.35
2023-04-25T07:28:42.200Z,11.63
2023-04-25T07:29:39.136Z,11.13
2023-04-25T07:30:36.087Z,9.73
2023-04-25T07:31:32.716Z,11.05
2023-04-25T07:32:29.375Z,9.98
2023-04-25T07:33:26.095Z,9.35
2023-04-25T07:34:22.880Z,9.88
2023-04-25T07:35:19.553Z,9.02
2023-04-25T07:36:16.672Z,9.43
2023-04-25T07:37:13.420Z,9.43
2023-04-25T07:38:11.366Z,9.15
2023-04-25T07:39:09.456Z,7.90
2023-04-25T07:40:08.928Z,6.70
2023-04-25T07:41:05.958Z,6.72
2023-04-25T07:42:03.397Z,7.63
2023-04-25T07:43:00.022Z,7.97
2023-04-25T07:43:56.581Z,7.97
2023-04-25T07:44:53.268Z,7.47
2023-04-25T07:45:49.893Z,8.02
2023-04-25T07:46:46.635Z,7.70
2023-04-25T07:47:43.260Z,7.70
2023-04-25T07:48:39.908Z,8.40
2023-04-25T07:49:37.734Z,6.43
2023-04-25T07:50:34.392Z,5.82
2023-04-25T07:51:31.126Z,6.78
2023-04-25T07:52:29.146Z,5.80
2023-04-25T07:53:27.923Z,6.10
2023-04-25T07:54:24.609Z,6.20
2023-04-25T07:55:21.250Z,5.88
2023-04-25T07:56:18.025Z,6.47
2023-04-25T07:57:15.129Z,6.53
2023-04-25T07:58:12.707Z,6.28
2023-04-25T07:59:09.310Z,5.93
2023-04-25T08:00:10.485Z,5.70
2023-04-25T08:01:07.105Z,6.47
2023-04-25T08:02:03.725Z,6.75
2023-04-25T08:03:00.680Z,6.80
2023-04-25T08:03:57.663Z,5.85
2023-04-25T08:04:54.546Z,5.90
2023-04-25T08:05:51.579Z,4.55
2023-04-25T08:06:48.882Z,5.13
2023-04-25T08:07:45.545Z,5.13
2023-04-25T08:08:42.204Z,5.18
2023-04-25T08:09:39.034Z,4.80
2023-04-25T08:10:35.725Z,4.60
2023-04-25T08:11:32.426Z,4.15
2023-04-25T08:12:29.018Z,4.40
2023-04-25T08:13:25.591Z,4.60
2023-04-25T08:14:22.165Z,4.47
2023-04-25T08:15:18.867Z,3.78
2023-04-25T08:16:15.875Z,4.22
2023-04-25T08:17:12.693Z,3.67
2023-04-25T08:18:09.482Z,3.60
2023-04-25T08:19:06.120Z,4.30
2023-04-25T08:20:06.438Z,4.05
2023-04-25T08:21:03.127Z,4.28
2023-04-25T08:21:59.746Z,4.10
2023-04-25T08:22:56.605Z,3.95
2023-04-25T08:23:53.997Z,3.95
2023-04-25T08:24:50.613Z,4.22
2023-04-25T08:25:47.498Z,3.50
2023-04-25T08:26:46.603Z,3.30
2023-04-25T08:27:44.036Z,3.08
2023-04-25T08:28:40.696Z,3.25
2023-04-25T08:29:37.276Z,3.78
2023-04-25T08:30:33.946Z,3.05
2023-04-25T08:31:30.913Z,3.20
2023-04-25T08:32:29.065Z,3.10
2023-04-25T08:33:27.486Z,2.80
2023-04-25T08:34:24.157Z,3.20
2023-04-25T08:35:21.587Z,2.85
2023-04-25T08:36:31.541Z,3.28
2023-04-25T08:37:35.289Z,2.75
2023-04-25T08:38:32.567Z,3.20
2023-04-25T08:39:29.231Z,3.08
2023-04-25T08:40:31.104Z,2.80
2023-04-25T08:41:29.063Z,2.50
2023-04-25T08:42:27.963Z,2.80
2023-04-25T08:43:24.668Z,2.78
2023-04-25T08:44:22.160Z,2.40
2023-04-25T08:45:18.970Z,2.70
2023-04-25T08:46:19.225Z,3.38
2023-04-25T08:47:16.055Z,3.05
2023-04-25T08:48:17.562Z,3.25
2023-04-25T08:49:14.165Z,3.28
2023-04-25T08:50:11.024Z,2.80
2023-04-25T08:52:11.994Z,2.45
2023-04-25T08:53:11.391Z,2.80
2023-04-25T08:54:27.980Z,2.35
2023-04-25T08:55:29.132Z,2.15
2023-04-25T08:56:27.779Z,2.22
2023-04-25T08:57:26.743Z,2.30
2023-04-25T08:58:23.941Z,2.25
2023-04-25T08:59:20.893Z,2.70
2023-04-25T09:00:17.977Z,2.33
2023-04-25T09:01:14.612Z,2.30
2023-04-25T09:02:15.952Z,2.40
2023-04-25T09:03:12.941Z,2.58
2023-04-25T09:04:09.951Z,2.45
2023-04-25T09:05:10.844Z,2.35
2023-04-25T09:06:08.484Z,2.45
2023-04-25T09:07:05.142Z,2.55
2023-04-25T09:08:02.034Z,2.80
2023-04-25T09:09:06.625Z,2.83
2023-04-25T09:10:04.513Z,3.40
2023-04-25T09:11:01.158Z,2.80
2023-04-25T09:11:59.111Z,3.00
2023-04-25T09:13:06.080Z,3.05
2023-04-25T09:14:17.304Z,2.97
2023-04-25T09:15:20.554Z,2.70
2023-04-25T09:16:20.063Z,2.47
2023-04-25T09:17:18.943Z,2.60
2023-04-25T09:18:29.820Z,2.60
2023-04-25T09:19:40.507Z,2.60
2023-04-25T09:21:00.934Z,2.40
2023-04-25T09:22:02.201Z,2.50
2023-04-25T09:23:07.722Z,2.83
2023-04-25T09:24:04.792Z,2.95
2023-04-25T09:25:13.374Z,4.05
2023-04-25T09:26:10.892Z,3.90
2023-04-25T09:27:09.794Z,3.53
2023-04-25T09:28:07.682Z,3.58
2023-04-25T09:29:08.493Z,2.75
2023-04-25T09:30:06.284Z,2.40
2023-04-25T09:31:03.027Z,2.35
2023-04-25T09:32:21.052Z,2.50
2023-04-25T09:33:18.081Z,2.83
2023-04-25T09:34:16.728Z,2.90
2023-04-25T09:35:25.382Z,2.58
2023-04-25T09:36:27.814Z,2.38
2023-04-25T09:37:27.036Z,2.78
2023-04-25T09:38:23.590Z,2.72
2023-04-25T09:39:22.479Z,2.38
2023-04-25T09:40:19.577Z,2.80
2023-04-25T09:41:24.676Z,2.72
2023-04-25T09:42:26.367Z,2.88
2023-04-25T09:43:25.557Z,3.17
2023-04-25T09:44:26.171Z,3.00
2023-04-25T09:45:23.575Z,2.40
2023-04-25T09:46:22.132Z,2.45
2023-04-25T09:47:19.429Z,2.75
2023-04-25T09:48:21.031Z,2.60
2023-04-25T09:49:17.725Z,2.70
2023-04-25T09:50:20.098Z,2.78
2023-04-25T09:51:16.858Z,2.70
2023-04-25T09:52:25.912Z,2.65
2023-04-25T09:53:22.888Z,2.53
2023-04-25T09:54:19.536Z,2.10
2023-04-25T09:55:16.981Z,2.58
2023-04-25T09:56:14.454Z,2.33
2023-04-25T09:57:16.924Z,2.05
2023-04-25T09:59:13.221Z,2.05
2023-04-25T10:00:13.256Z,2.15
2023-04-25T10:01:11.940Z,2.08
2023-04-25T10:02:10.541Z,1.75
2023-04-25T10:03:07.466Z,2.28
2023-04-25T10:04:07.818Z,2.00
2023-04-25T10:05:08.946Z,1.80
2023-04-25T10:06:09.712Z,1.60
2023-04-25T10:07:07.897Z,1.48
2023-04-25T10:08:05.693Z,1.65
2023-04-25T10:09:04.921Z,1.50
2023-04-25T10:10:05.833Z,1.40
2023-04-25T10:11:04.807Z,1.75
2023-04-25T10:12:01.655Z,1.70
2023-04-25T10:12:58.473Z,1.35
2023-04-25T10:13:55.407Z,1.60
2023-04-25T10:14:53.297Z,1.55
2023-04-25T10:15:50.221Z,1.63
2023-04-25T10:16:48.086Z,1.55
2023-04-25T10:17:44.960Z,1.25
2023-04-25T10:18:41.785Z,1.42
2023-04-25T10:19:38.653Z,1.38
2023-04-25T10:20:35.375Z,1.70
2023-04-25T10:21:34.119Z,1.50
2023-04-25T10:22:35.892Z,1.92
2023-04-25T10:23:33.275Z,1.70
2023-04-25T10:24:29.875Z,1.70
2023-04-25T10:25:29.583Z,2.08
2023-04-25T10:26:27.402Z,1.77
2023-04-25T10:27:29.139Z,1.67
2023-04-25T10:28:26.158Z,1.80
2023-04-25T10:29:25.191Z,1.63
2023-04-25T10:30:21.801Z,1.40
2023-04-25T10:31:18.555Z,1.30
2023-04-25T10:32:15.839Z,1.40
2023-04-25T10:33:19.700Z,1.35
2023-04-25T10:34:18.135Z,1.30
2023-04-25T10:35:34.403Z,1.38
2023-04-25T10:36:33.369Z,1.13
2023-04-25T10:37:31.496Z,0.95
2023-04-25T10:38:28.153Z,1.00
2023-04-25T10:39:28.325Z,1.10
2023-04-25T10:40:25.358Z,1.30
2023-04-25T10:41:24.043Z,1.02
2023-04-25T10:42:20.754Z,1.00
2023-04-25T10:43:32.888Z,1.10
2023-04-25T10:44:31.264Z,1.17
2023-04-25T10:45:27.970Z,1.00
2023-04-25T10:46:26.955Z,0.90
2023-04-25T10:47:36.440Z,1.00
2023-04-25T10:48:33.169Z,1.30
2023-04-25T10:49:35.093Z,1.10
2023-04-25T10:50:40.236Z,1.10
2023-04-25T10:51:54.391Z,1.20
2023-04-25T10:52:52.209Z,1.30
2023-04-25T10:54:03.832Z,1.20
2023-04-25T10:55:01.594Z,1.33
2023-04-25T10:55:58.243Z,1.45
2023-04-25T10:56:54.854Z,1.40
2023-04-25T10:57:52.535Z,1.42
2023-04-25T10:58:52.110Z,1.33
2023-04-25T10:59:49.970Z,1.58
2023-04-25T11:00:56.710Z,1.50
2023-04-25T11:01:56.202Z,1.80
2023-04-25T11:03:00.057Z,1.27
2023-04-25T11:03:59.793Z,1.40
2023-04-25T11:04:56.845Z,1.35
2023-04-25T11:07:11.332Z,1.58
2023-04-25T11:08:17.371Z,1.63
2023-04-25T11:09:14.622Z,1.60
2023-04-25T11:10:11.288Z,1.30
2023-04-25T11:11:09.449Z,1.35
2023-04-25T11:12:08.286Z,1.45
2023-04-25T11:13:05.930Z,1.20
2023-04-25T11:14:02.695Z,1.10
2023-04-25T11:15:07.578Z,1.30
2023-04-25T11:16:12.438Z,1.13
2023-04-25T11:17:11.574Z,1.13
2023-04-25T11:18:09.162Z,1.20
2023-04-25T11:19:05.870Z,1.00
2023-04-25T11:20:07.551Z,0.93
2023-04-25T11:21:04.294Z,1.00
2023-04-25T11:22:03.825Z,0.80
2023-04-25T11:24:01.486Z,0.88
2023-04-25T11:24:58.088Z,0.80
2023-04-25T11:25:54.968Z,0.90
2023-04-25T11:26:51.629Z,0.90
2023-04-25T11:27:55.659Z,0.80
2023-04-25T11:28:52.263Z,0.80
2023-04-25T11:29:49.186Z,0.80
2023-04-25T11:30:49.975Z,0.80
2023-04-25T11:31:46.919Z,0.90
2023-04-25T11:32:44.413Z,1.10
2023-04-25T11:33:41.909Z,0.90
2023-04-25T11:34:38.549Z,0.93
2023-04-25T11:35:35.205Z,1.00
2023-04-25T11:36:32.383Z,0.90
2023-04-25T11:37:29.522Z,0.90
2023-04-25T11:38:28.717Z,0.95
2023-04-25T11:39:26.896Z,1.00
2023-04-25T11:40:23.742Z,1.08
2023-04-25T11:41:21.425Z,0.90
2023-04-25T11:42:18.617Z,0.90
2023-04-25T11:43:15.428Z,1.08
2023-04-25T11:44:12.197Z,0.90
2023-04-25T11:45:09.243Z,1.10
2023-04-25T11:46:09.275Z,1.20
2023-04-25T11:47:06.212Z,1.00
2023-04-25T11:48:03.556Z,1.00
2023-04-25T11:49:00.425Z,1.13
2023-04-25T11:49:58.524Z,1.10
2023-04-25T11:50:56.140Z,1.00
2023-04-25T11:51:52.889Z,1.10
2023-04-25T11:52:49.650Z,1.08
2023-04-25T11:53:46.602Z,1.30
2023-04-25T11:54:45.731Z,1.10
2023-04-25T11:55:42.360Z,1.00
2023-04-25T11:56:42.515Z,1.00
2023-04-25T11:57:40.751Z,1.00
2023-04-25T11:58:59.087Z,1.10
2023-04-25T11:59:55.739Z,1.30
2023-04-25T12:00:52.516Z,1.10
2023-04-25T12:01:51.071Z,1.23
2023-04-25T12:02:49.472Z,1.40
2023-04-25T12:03:49.459Z,1.08
2023-04-25T12:04:46.558Z,1.30
2023-04-25T12:05:43.530Z,1.10
2023-04-25T12:06:42.070Z,1.30
2023-04-25T12:07:39.296Z,1.10
2023-04-25T12:08:35.900Z,1.20
2023-04-25T12:09:34.832Z,1.30
2023-04-25T12:10:31.568Z,1.10
2023-04-25T12:11:28.199Z,1.20
2023-04-25T12:12:28.870Z,1.10
2023-04-25T12:13:27.706Z,1.30
2023-04-25T12:14:25.728Z,1.20
2023-04-25T12:15:26.603Z,1.00
2023-04-25T12:16:23.410Z,1.10
2023-04-25T12:17:20.063Z,1.00
2023-04-25T12:18:20.407Z,1.20
2023-04-25T12:19:18.192Z,1.38
2023-04-25T12:20:17.264Z,1.30
2023-04-25T12:21:13.882Z,1.20
2023-04-25T12:22:24.519Z,1.08
2023-04-25T12:23:28.769Z,1.30
2023-04-25T12:24:28.373Z,0.98
2023-04-25T12:25:39.345Z,1.10
2023-04-25T12:27:06.188Z,1.20
2023-04-25T12:28:16.277Z,1.20
2023-04-25T12:29:26.043Z,1.45
2023-04-25T12:30:24.679Z,1.50
2023-04-25T12:31:22.347Z,1.50
2023-04-25T12:32:19.688Z,1.48
2023-04-25T12:33:16.348Z,1.60
2023-04-25T12:34:13.638Z,1.50
2023-04-25T12:35:10.434Z,1.77
2023-04-25T12:36:12.595Z,1.20
2023-04-25T12:37:09.142Z,1.25
2023-04-25T12:38:05.784Z,1.20
2023-04-25T12:39:05.226Z,1.27
2023-04-25T12:40:01.927Z,1.33
2023-04-25T12:40:59.614Z,1.00
2023-04-25T12:41:56.264Z,1.23
2023-04-25T12:42:52.901Z,1.20
2023-04-25T12:43:49.533Z,1.17
2023-04-25T12:44:47.399Z,1.05
2023-04-25T12:45:44.135Z,1.27
2023-04-25T12:46:44.592Z,0.90
2023-04-25T12:47:41.450Z,1.15
2023-04-25T12:48:39.383Z,1.10
2023-04-25T12:49:36.324Z,1.08
2023-04-25T12:50:33.073Z,1.00
2023-04-25T12:51:29.807Z,1.27
2023-04-25T12:52:26.573Z,3.28
2023-04-25T12:53:25.468Z,1.20
2023-04-25T12:54:22.251Z,1.27
2023-04-25T12:55:18.936Z,1.30